Time;durP1;ratioP1;P1;durP2;ratioP2;P2;SDS_P1;SDS_P2;PMS_P1;PMS_P2;Temp;Humidity;BMP_temperature;BMP_pressure;BME280_temperature;BME280_humidity;BME280_pressure;Samples;Min_cycle;Max_cycle;Signal;HPM_P1;HPM_P2
2023/12/27 00:01:16;;;;;;;6.63;3.40;;;;;;;11.85;47.54;99850.91;5031303;28;20697;-26
2023/12/27 00:03:42;;;;;;;7.75;3.40;;;;;;;11.97;47.36;99841.25;5034131;28;20030;-26
2023/12/27 00:06:07;;;;;;;8.65;4.03;;;;;;;12.04;46.91;99852.72;5034427;28;20078;-26
2023/12/27 00:08:32;;;;;;;9.18;4.40;;;;;;;12.10;46.68;99851.88;5034746;28;20025;-26
2023/12/27 00:10:58;;;;;;;7.45;3.80;;;;;;;12.20;46.59;99851.41;5034906;28;20100;-26
2023/12/27 00:13:23;;;;;;;7.15;3.78;;;;;;;12.09;46.87;99852.91;5034933;28;20421;-26
2023/12/27 00:15:48;;;;;;;5.72;3.65;;;;;;;12.02;46.54;99856.63;5035015;28;20033;-26
2023/12/27 00:18:17;;;;;;;6.63;3.83;;;;;;;12.27;46.94;99851.41;5034753;28;20053;-26
2023/12/27 00:20:43;;;;;;;6.07;3.60;;;;;;;12.31;46.70;99857.94;5034674;28;20029;-27
2023/12/27 00:23:09;;;;;;;8.20;3.80;;;;;;;12.29;46.18;99862.69;5034311;28;20063;-26
2023/12/27 00:25:34;;;;;;;5.80;3.42;;;;;;;12.32;46.30;99867.59;5034519;28;20029;-26
2023/12/27 00:27:59;;;;;;;6.25;3.55;;;;;;;12.19;46.70;99863.13;5034168;28;20496;-27
2023/12/27 00:30:25;;;;;;;6.40;3.38;;;;;;;12.21;46.90;99869.06;5033953;28;20106;-26
2023/12/27 00:32:50;;;;;;;6.00;3.25;;;;;;;12.39;46.51;99883.56;5033907;28;20022;-26
2023/12/27 00:35:15;;;;;;;6.30;3.25;;;;;;;12.32;46.24;99884.44;5033925;28;20052;-26
2023/12/27 00:37:41;;;;;;;7.00;3.38;;;;;;;12.40;46.14;99891.38;5034091;28;20064;-26
2023/12/27 00:40:07;;;;;;;8.02;3.42;;;;;;;12.40;46.18;99886.03;5034000;28;20026;-27
2023/12/27 00:42:33;;;;;;;5.90;3.40;;;;;;;12.41;46.99;99893.00;5015422;28;20119;-26
2023/12/27 00:44:58;;;;;;;7.00;3.17;;;;;;;12.29;45.76;99882.16;5014440;28;20022;-27
2023/12/27 00:47:23;;;;;;;5.25;3.10;;;;;;;12.44;46.18;99897.91;5014427;28;20022;-27
2023/12/27 00:49:49;;;;;;;6.88;3.35;;;;;;;12.65;45.70;99895.97;5014106;28;20058;-26
2023/12/27 00:52:14;;;;;;;6.55;3.10;;;;;;;12.49;46.16;99894.63;5014103;28;20802;-27
2023/12/27 00:54:39;;;;;;;7.18;3.15;;;;;;;12.39;46.20;99894.25;5013909;28;20026;-26
2023/12/27 00:57:05;;;;;;;5.65;3.22;;;;;;;12.41;46.29;99898.34;5014105;28;20141;-27
2023/12/27 00:59:30;;;;;;;9.35;3.13;;;;;;;12.52;46.47;99903.00;5013843;28;20017;-28
2023/12/27 01:01:56;;;;;;;7.47;3.30;;;;;;;12.44;46.57;99915.78;5052276;28;20040;-26
2023/12/27 01:04:21;;;;;;;4.00;2.65;;;;;;;12.38;46.57;99908.63;5053608;28;20112;-26
2023/12/27 01:06:46;;;;;;;5.50;2.80;;;;;;;12.44;46.75;99903.25;5053423;28;20488;-26
2023/12/27 01:09:12;;;;;;;5.18;3.10;;;;;;;12.22;47.40;99894.72;5053692;28;20047;-26
2023/12/27 01:11:37;;;;;;;5.80;2.95;;;;;;;12.42;46.66;99902.66;5052923;28;20060;-26
2023/12/27 01:14:03;;;;;;;4.78;2.78;;;;;;;12.25;46.90;99904.97;5053136;28;20098;-25
2023/12/27 01:16:28;;;;;;;6.85;2.80;;;;;;;12.26;47.00;99903.13;5053458;28;20037;-26
2023/12/27 01:18:54;;;;;;;6.63;3.17;;;;;;;12.37;46.67;99909.66;5053489;28;20029;-26
2023/12/27 01:21:19;;;;;;;5.65;2.97;;;;;;;12.31;47.76;99914.78;5053171;28;20026;-26
2023/12/27 01:23:44;;;;;;;5.93;3.00;;;;;;;12.46;47.22;99916.41;5053226;28;20036;-27
2023/12/27 01:26:10;;;;;;;6.15;2.80;;;;;;;12.27;46.83;99918.91;5053354;28;20060;-26
2023/12/27 01:28:35;;;;;;;6.10;2.97;;;;;;;12.45;47.20;99912.06;5053429;28;20416;-26
2023/12/27 01:31:01;;;;;;;5.13;2.72;;;;;;;12.38;46.63;99913.97;5053090;28;20025;-26
2023/12/27 01:33:27;;;;;;;3.78;2.88;;;;;;;12.40;47.06;99901.25;5053178;28;20029;-26
2023/12/27 01:35:52;;;;;;;4.85;2.85;;;;;;;12.37;46.84;99899.78;5053301;28;20037;-26
2023/12/27 01:38:18;;;;;;;6.75;2.97;;;;;;;12.48;46.22;99906.31;5053174;28;20024;-26
2023/12/27 01:40:51;;;;;;;7.30;3.20;;;;;;;12.67;46.64;99913.41;5043839;28;20030;-26
2023/12/27 01:43:17;;;;;;;6.95;3.00;;;;;;;12.58;46.74;99908.53;5013581;28;20037;-27
2023/12/27 01:45:45;;;;;;;5.35;2.92;;;;;;;12.66;46.55;99910.94;5013235;28;20496;-27
2023/12/27 01:48:11;;;;;;;4.88;2.88;;;;;;;12.56;46.99;99929.28;5012999;28;20026;-26
2023/12/27 01:50:37;;;;;;;7.47;3.03;;;;;;;12.63;46.03;99916.75;5013161;28;20046;-27
2023/12/27 01:53:02;;;;;;;5.03;2.85;;;;;;;12.45;46.85;99917.41;5013235;28;20053;-27
2023/12/27 01:55:28;;;;;;;6.57;2.80;;;;;;;12.50;46.97;99912.28;5012987;28;20482;-27
2023/12/27 01:57:53;;;;;;;5.43;3.03;;;;;;;12.35;47.06;99912.53;5013011;28;20033;-27
2023/12/27 02:00:19;;;;;;;4.63;2.60;;;;;;;12.46;47.31;99913.72;5013109;28;20358;-27
2023/12/27 02:02:44;;;;;;;6.57;3.00;;;;;;;12.36;47.47;99916.84;5013006;28;20401;-27
2023/12/27 02:05:10;;;;;;;6.35;3.05;;;;;;;12.42;48.06;99915.19;5013233;28;20061;-27
2023/12/27 02:07:36;;;;;;;6.95;3.22;;;;;;;12.37;47.94;99917.66;5012548;28;20038;-27
2023/12/27 02:10:03;;;;;;;5.00;2.80;;;;;;;12.68;47.95;99924.94;5012763;28;20022;-27
2023/12/27 02:12:30;;;;;;;5.80;3.10;;;;;;;12.67;47.67;99920.63;5012611;28;20026;-27
2023/12/27 02:14:55;;;;;;;5.70;2.92;;;;;;;12.56;47.73;99915.94;5012871;28;20488;-27
2023/12/27 02:17:22;;;;;;;6.53;3.35;;;;;;;12.85;47.35;99912.72;5012603;28;20108;-27
2023/12/27 02:19:48;;;;;;;4.72;2.58;;;;;;;12.78;47.33;99914.59;5012661;28;20033;-26
2023/12/27 02:22:19;;;;;;;6.15;2.80;;;;;;;12.70;47.61;99918.34;5012594;28;20033;-27
2023/12/27 02:24:47;;;;;;;5.90;3.00;;;;;;;12.79;47.80;99918.91;5011730;28;20037;-27
2023/12/27 02:27:12;;;;;;;4.30;2.80;;;;;;;12.82;47.43;99928.34;5012463;28;20048;-27
2023/12/27 02:29:38;;;;;;;3.97;2.72;;;;;;;12.81;47.23;99924.88;5012342;28;20458;-27
2023/12/27 02:32:03;;;;;;;5.70;3.28;;;;;;;12.98;47.64;99927.03;5012200;28;20080;-27
2023/12/27 02:34:29;;;;;;;6.25;3.20;;;;;;;12.91;47.65;99929.75;5010771;28;20037;-27
2023/12/27 02:36:54;;;;;;;6.30;2.90;;;;;;;13.01;47.80;99940.78;5012025;28;20029;-26
2023/12/27 02:39:19;;;;;;;5.88;2.80;;;;;;;13.10;47.45;99933.34;5012144;28;20506;-27
2023/12/27 02:41:45;;;;;;;4.47;2.65;;;;;;;12.88;47.55;99949.66;5012040;28;20038;-27
2023/12/27 02:44:10;;;;;;;7.35;2.88;;;;;;;13.01;47.47;99939.97;5012405;28;20022;-27
2023/12/27 02:46:35;;;;;;;5.68;2.75;;;;;;;13.01;47.52;99942.63;5012296;28;20017;-27
2023/12/27 02:49:01;;;;;;;7.03;3.10;;;;;;;12.99;47.44;99942.84;5011817;28;20501;-27
2023/12/27 02:51:26;;;;;;;7.15;2.97;;;;;;;13.00;47.55;99941.78;5011973;28;20107;-28
2023/12/27 02:53:51;;;;;;;6.45;2.88;;;;;;;12.80;47.64;99947.25;5011826;28;20030;-27
2023/12/27 02:56:17;;;;;;;7.50;3.10;;;;;;;12.96;47.63;99961.97;5011142;28;20379;-27
2023/12/27 02:58:43;;;;;;;5.20;2.70;;;;;;;12.74;47.66;99957.94;5011903;28;20029;-27
2023/12/27 03:01:08;;;;;;;6.85;2.75;;;;;;;12.79;47.59;99950.13;5011485;28;20061;-27
2023/12/27 03:03:33;;;;;;;5.75;2.88;;;;;;;12.77;47.48;99971.69;5010362;28;20057;-27
2023/12/27 03:05:59;;;;;;;5.30;2.90;;;;;;;12.65;47.78;99960.06;5010301;28;20018;-27
2023/12/27 03:08:24;;;;;;;4.45;2.65;;;;;;;12.85;47.22;99974.16;5010404;28;20041;-27
2023/12/27 03:10:49;;;;;;;3.70;2.38;;;;;;;12.94;46.62;99981.91;5011531;28;20026;-27
2023/12/27 03:13:15;;;;;;;4.82;2.78;;;;;;;12.83;46.87;99978.03;5011552;28;20429;-26
2023/12/27 03:15:40;;;;;;;6.07;2.78;;;;;;;12.77;47.11;99974.38;5011593;28;20109;-27
2023/12/27 03:18:06;;;;;;;9.07;2.92;;;;;;;12.79;46.80;99984.84;5010159;28;20030;-27
2023/12/27 03:20:31;;;;;;;4.50;2.83;;;;;;;12.83;46.69;99981.56;5011359;28;20017;-27
2023/12/27 03:22:56;;;;;;;6.45;2.72;;;;;;;12.96;46.55;99982.50;5011593;28;20143;-27
2023/12/27 03:25:22;;;;;;;7.20;2.90;;;;;;;12.91;46.57;99977.81;5011425;28;20050;-27
2023/12/27 03:27:47;;;;;;;4.80;2.78;;;;;;;13.06;46.74;99985.53;5011427;28;20051;-27
2023/12/27 03:30:13;;;;;;;6.55;2.63;;;;;;;12.55;47.63;99979.19;5011475;28;20053;-28
2023/12/27 03:32:38;;;;;;;5.93;2.65;;;;;;;12.74;47.42;99976.66;5011183;28;20072;-27
2023/12/27 03:35:04;;;;;;;5.13;2.50;;;;;;;12.58;47.79;99968.09;5011290;28;20029;-28
2023/12/27 03:37:29;;;;;;;5.90;2.85;;;;;;;12.66;47.69;99977.69;5011621;28;20064;-27
2023/12/27 03:39:54;;;;;;;6.43;2.60;;;;;;;12.57;47.90;99990.47;5011207;28;20018;-27
2023/12/27 03:42:20;;;;;;;7.13;2.90;;;;;;;12.68;48.11;99986.34;5011260;28;20030;-26
2023/12/27 03:44:52;;;;;;;3.90;2.70;;;;;;;12.88;48.19;99984.41;5011475;28;20720;-27
2023/12/27 03:47:17;;;;;;;4.57;2.75;;;;;;;12.83;48.25;99994.06;5011491;28;20097;-27
2023/12/27 03:49:43;;;;;;;5.03;2.90;;;;;;;12.54;49.23;99987.41;5010940;28;20205;-28
2023/12/27 03:52:08;;;;;;;6.53;3.00;;;;;;;12.62;49.44;99990.69;5011003;28;20454;-28
2023/12/27 03:54:33;;;;;;;6.57;2.80;;;;;;;12.26;50.46;99983.16;5010745;28;20064;-27
2023/12/27 03:56:59;;;;;;;6.95;3.22;;;;;;;12.64;49.69;99988.63;5010897;28;20026;-27
2023/12/27 03:59:24;;;;;;;7.35;2.83;;;;;;;12.58;49.95;99993.97;5011037;28;20022;-27
2023/12/27 04:01:49;;;;;;;5.95;3.10;;;;;;;12.64;50.04;99990.44;5011218;28;20474;-27
2023/12/27 04:04:15;;;;;;;6.70;3.00;;;;;;;12.51;50.38;99992.13;5010526;28;20022;-27
2023/12/27 04:06:41;;;;;;;6.43;2.92;;;;;;;12.75;49.43;99981.78;5010668;28;20034;-27
2023/12/27 04:09:07;;;;;;;6.72;2.80;;;;;;;12.81;49.42;99983.63;5010787;28;20409;-27
2023/12/27 04:11:32;;;;;;;6.63;3.00;;;;;;;12.82;49.89;99985.25;5010594;28;20030;-27
2023/12/27 04:13:58;;;;;;;5.93;3.00;;;;;;;12.75;50.03;99999.66;5011163;28;20029;-27
2023/12/27 04:16:23;;;;;;;5.88;2.90;;;;;;;12.77;50.08;100003.75;5010813;28;20033;-27
2023/12/27 04:18:48;;;;;;;5.47;2.67;;;;;;;12.81;50.70;100020.16;5011016;28;20517;-27
2023/12/27 04:21:14;;;;;;;5.57;2.80;;;;;;;12.63;50.37;100015.53;5010980;28;20101;-27
2023/12/27 04:23:39;;;;;;;4.22;2.75;;;;;;;12.77;49.94;100016.28;5010822;28;20034;-27
2023/12/27 04:26:05;;;;;;;6.32;2.58;;;;;;;12.58;50.42;100018.81;5012688;28;20025;-27
2023/12/27 04:28:30;;;;;;;6.20;3.30;;;;;;;12.96;49.93;100038.59;5030455;28;20064;-26
2023/12/27 04:30:56;;;;;;;6.13;2.60;;;;;;;12.99;49.29;100032.84;5030703;28;20021;-27
2023/12/27 04:33:21;;;;;;;7.95;3.00;;;;;;;13.02;49.50;100035.94;5030611;28;20481;-27
2023/12/27 04:35:47;;;;;;;6.97;2.75;;;;;;;13.15;48.88;100043.03;5030489;28;20088;-27
2023/12/27 04:38:13;;;;;;;5.13;2.80;;;;;;;12.76;49.29;100044.84;5030615;28;20576;-27
2023/12/27 04:40:43;;;;;;;4.65;2.70;;;;;;;12.87;49.08;100048.69;5030353;28;20030;-27
2023/12/27 04:43:08;;;;;;;5.65;3.00;;;;;;;12.90;49.37;100053.63;5030588;28;20041;-27
2023/12/27 04:45:34;;;;;;;4.97;2.63;;;;;;;12.80;49.54;100054.06;5030449;28;20041;-28
2023/12/27 04:47:59;;;;;;;4.18;2.70;;;;;;;13.01;49.56;100062.84;5032581;28;20035;-27
2023/12/27 04:50:24;;;;;;;5.25;2.65;;;;;;;13.11;48.90;100063.22;5033877;28;20049;-28
2023/12/27 04:52:50;;;;;;;4.35;2.70;;;;;;;13.25;49.15;100064.78;5033811;28;20335;-27
2023/12/27 04:55:15;;;;;;;4.90;2.90;;;;;;;13.13;49.33;100069.16;5034183;28;20041;-27
2023/12/27 04:57:40;;;;;;;5.22;2.90;;;;;;;12.90;50.50;100065.13;5033750;28;20120;-27
2023/12/27 05:00:07;;;;;;;7.00;2.72;;;;;;;12.46;51.05;100072.03;5033870;28;20053;-27
2023/12/27 05:02:32;;;;;;;7.32;3.10;;;;;;;12.94;50.16;100081.56;5033802;28;20034;-27
2023/12/27 05:04:58;;;;;;;4.47;2.90;;;;;;;12.68;50.61;100077.13;5033698;28;20021;-29
2023/12/27 05:07:23;;;;;;;8.07;3.40;;;;;;;12.79;50.27;100072.97;5033593;28;20025;-27
2023/12/27 05:09:48;;;;;;;8.88;3.55;;;;;;;12.83;50.01;100071.53;5033964;28;20460;-27
2023/12/27 05:12:14;;;;;;;3.78;2.60;;;;;;;12.75;50.28;100071.75;5033912;28;20033;-27
2023/12/27 05:14:39;;;;;;;6.60;3.20;;;;;;;12.26;51.66;100080.06;5033701;28;20029;-27
2023/12/27 05:17:04;;;;;;;5.15;2.85;;;;;;;12.33;51.46;100094.19;5034067;28;20104;-27
2023/12/27 05:19:30;;;;;;;5.03;2.80;;;;;;;12.40;52.43;100093.41;5033797;28;20029;-27
2023/12/27 05:21:55;;;;;;;5.72;3.15;;;;;;;12.31;52.31;100090.09;5033953;28;20118;-27
2023/12/27 05:24:20;;;;;;;6.93;3.10;;;;;;;12.65;51.91;100102.38;5033561;28;20090;-27
2023/12/27 05:26:46;;;;;;;5.15;2.80;;;;;;;12.74;50.95;100086.13;5048104;28;20024;-27
2023/12/27 05:29:11;;;;;;;6.80;2.97;;;;;;;12.34;52.08;100105.72;5053407;28;20029;-27
2023/12/27 05:31:36;;;;;;;4.85;2.97;;;;;;;12.44;51.82;100107.97;5053583;28;20385;-27
2023/12/27 05:34:02;;;;;;;7.20;3.00;;;;;;;12.47;52.14;100115.53;5053522;28;20017;-27
2023/12/27 05:36:27;;;;;;;7.07;3.08;;;;;;;12.54;51.52;100119.03;5053456;28;20099;-27
2023/12/27 05:38:53;;;;;;;8.57;2.90;;;;;;;12.50;52.09;100117.81;5053062;28;20044;-27
2023/12/27 05:41:24;;;;;;;5.20;2.83;;;;;;;12.30;52.43;100113.31;5048545;28;20022;-27
2023/12/27 05:43:49;;;;;;;8.10;3.25;;;;;;;12.38;52.52;100111.47;5033291;28;20041;-27
2023/12/27 05:46:15;;;;;;;7.05;2.55;;;;;;;12.28;52.63;100123.38;5033409;28;20025;-27
2023/12/27 05:48:40;;;;;;;7.10;2.85;;;;;;;12.08;52.63;100125.19;5033229;28;20036;-26
2023/12/27 05:51:05;;;;;;;7.97;3.10;;;;;;;12.11;52.86;100144.28;5033152;28;20029;-27
2023/12/27 05:53:31;;;;;;;6.47;2.83;;;;;;;12.18;52.75;100144.28;5033389;28;20127;-27
2023/12/27 05:55:56;;;;;;;8.35;3.05;;;;;;;12.16;53.46;100140.19;5032164;28;20592;-27
2023/12/27 05:58:21;;;;;;;6.57;3.08;;;;;;;11.92;54.64;100142.41;5033164;28;20027;-27
2023/12/27 06:00:47;;;;;;;7.13;3.05;;;;;;;11.79;54.27;100143.19;5032837;28;20120;-27
2023/12/27 06:03:13;;;;;;;4.88;2.97;;;;;;;12.13;53.72;100142.25;5032742;28;20501;-26
2023/12/27 06:05:38;;;;;;;5.78;2.88;;;;;;;12.28;53.48;100158.06;5032738;28;20025;-27
2023/12/27 06:08:03;;;;;;;8.57;3.38;;;;;;;12.46;52.69;100143.28;5032489;28;20444;-26
2023/12/27 06:10:30;;;;;;;5.40;2.90;;;;;;;12.59;53.06;100137.94;5032632;28;20025;-27
2023/12/27 06:12:55;;;;;;;5.82;2.85;;;;;;;12.48;52.37;100134.03;5032282;28;20053;-27
2023/12/27 06:15:22;;;;;;;5.63;2.72;;;;;;;12.94;50.76;100151.00;5032476;28;20052;-27
2023/12/27 06:17:47;;;;;;;5.57;2.97;;;;;;;13.13;50.48;100151.19;5032459;28;20036;-27
2023/12/27 06:20:13;;;;;;;7.28;3.10;;;;;;;13.21;49.84;100154.44;5031927;28;20092;-26
2023/12/27 06:22:38;;;;;;;6.53;2.83;;;;;;;13.24;49.80;100156.69;5031980;28;20482;-27
2023/12/27 06:25:04;;;;;;;6.47;2.72;;;;;;;13.20;49.82;100160.81;5051533;28;20035;-27
2023/12/27 06:27:30;;;;;;;4.70;2.65;;;;;;;13.22;49.36;100172.09;5052141;28;20418;-27
2023/12/27 06:29:55;;;;;;;5.15;2.80;;;;;;;13.21;49.67;100172.31;5051962;28;20052;-27
2023/12/27 06:32:20;;;;;;;5.65;3.00;;;;;;;13.55;49.39;100173.06;5051709;28;20094;-27
2023/12/27 06:34:46;;;;;;;5.93;2.83;;;;;;;13.56;49.38;100170.16;5051787;28;20056;-26
2023/12/27 06:37:11;;;;;;;4.30;2.70;;;;;;;13.78;48.61;100169.84;5051843;28;20020;-26
2023/12/27 06:39:37;;;;;;;3.90;2.70;;;;;;;14.11;47.45;100179.53;5051700;28;20056;-27
2023/12/27 06:42:02;;;;;;;5.57;2.85;;;;;;;14.22;48.55;100192.22;5033620;28;20144;-27
2023/12/27 06:44:28;;;;;;;4.82;2.85;;;;;;;14.34;46.64;100184.34;5010634;28;20029;-28
2023/12/27 06:46:53;;;;;;;5.32;2.75;;;;;;;14.24;46.81;100188.31;5012140;28;20034;-27
2023/12/27 06:49:19;;;;;;;5.88;3.22;;;;;;;14.20;47.47;100195.13;5011600;28;20045;-27
2023/12/27 06:51:44;;;;;;;5.82;2.97;;;;;;;14.89;45.13;100197.06;5011677;28;20030;-27
2023/12/27 06:54:10;;;;;;;7.75;3.10;;;;;;;15.15;44.72;100209.41;5011981;28;20525;-28
2023/12/27 06:56:38;;;;;;;5.68;2.97;;;;;;;15.28;43.84;100208.44;5012235;28;20030;-28
2023/12/27 06:59:04;;;;;;;4.47;2.92;;;;;;;15.30;44.35;100219.75;5012265;28;20032;-28
2023/12/27 07:01:30;;;;;;;6.40;2.97;;;;;;;15.04;44.24;100219.81;5012044;28;20018;-28
2023/12/27 07:03:55;;;;;;;5.60;2.90;;;;;;;15.17;44.41;100228.75;5011897;28;20033;-27
2023/12/27 07:06:20;;;;;;;6.28;3.60;;;;;;;15.74;43.25;100236.59;5011696;28;20025;-28
2023/12/27 07:08:46;;;;;;;7.47;3.10;;;;;;;16.07;42.07;100240.72;5011591;28;20045;-28
2023/12/27 07:11:18;;;;;;;6.78;3.00;;;;;;;15.85;42.44;100254.63;5011206;28;20014;-28
2023/12/27 07:13:46;;;;;;;7.40;3.35;;;;;;;15.96;41.71;100266.47;5011580;28;20045;-27
2023/12/27 07:16:12;;;;;;;6.50;3.10;;;;;;;15.70;42.29;100264.91;5011253;28;20486;-27
2023/12/27 07:18:38;;;;;;;5.28;3.03;;;;;;;15.43;43.29;100278.63;5011541;28;20030;-27
2023/12/27 07:21:05;;;;;;;6.70;3.38;;;;;;;16.10;41.89;100267.94;5010554;28;20065;-28
2023/12/27 07:23:30;;;;;;;8.05;3.75;;;;;;;16.10;42.35;100280.53;5011039;28;20410;-28
2023/12/27 07:25:56;;;;;;;5.72;3.40;;;;;;;16.50;41.88;100274.63;5010960;28;20029;-27
2023/12/27 07:28:21;;;;;;;8.00;3.22;;;;;;;16.65;40.55;100261.56;5011574;28;20022;-27
2023/12/27 07:30:46;;;;;;;7.07;3.28;;;;;;;16.85;40.83;100274.72;5011618;28;20161;-27
2023/12/27 07:33:15;;;;;;;8.50;3.50;;;;;;;16.26;41.97;100276.41;5011680;28;20385;-27
2023/12/27 07:35:42;;;;;;;7.70;3.40;;;;;;;16.56;41.17;100281.75;5011392;28;20052;-27
2023/12/27 07:38:08;;;;;;;6.55;3.10;;;;;;;16.25;41.94;100261.34;5011232;28;20103;-27
2023/12/27 07:40:34;;;;;;;7.47;3.28;;;;;;;15.77;42.71;100276.41;5011191;28;20465;-27
2023/12/27 07:43:00;;;;;;;7.20;3.42;;;;;;;15.98;42.93;100278.63;5010637;28;20030;-27
2023/12/27 07:45:25;;;;;;;8.70;3.80;;;;;;;16.80;41.27;100285.31;5010579;28;20136;-28
2023/12/27 07:47:50;;;;;;;8.85;3.80;;;;;;;16.46;41.96;100271.56;5010881;28;20025;-28
2023/12/27 07:50:16;;;;;;;6.65;3.67;;;;;;;16.82;41.38;100283.25;5010640;28;20038;-27
2023/12/27 07:52:42;;;;;;;6.63;3.55;;;;;;;16.78;41.30;100290.91;5010965;28;20037;-27
2023/12/27 07:55:08;;;;;;;7.43;3.58;;;;;;;17.16;40.67;100302.34;5011054;28;20104;-28
2023/12/27 07:57:33;;;;;;;6.18;3.20;;;;;;;17.40;39.75;100297.75;5011364;28;20025;-30
2023/12/27 07:59:59;;;;;;;7.57;3.42;;;;;;;17.84;39.38;100300.03;5011279;28;20025;-28
2023/12/27 08:02:24;;;;;;;6.00;3.13;;;;;;;18.28;38.10;100303.91;5011576;28;20387;-27
2023/12/27 08:04:50;;;;;;;6.20;3.42;;;;;;;18.14;38.32;100307.94;5011889;28;20488;-26
2023/12/27 08:07:15;;;;;;;7.50;3.33;;;;;;;18.21;38.02;100311.31;5011239;28;20548;-27
2023/12/27 08:09:41;;;;;;;5.95;3.20;;;;;;;17.52;39.20;100309.34;5011512;28;20097;-27
2023/12/27 08:12:09;;;;;;;4.80;3.13;;;;;;;17.90;38.91;100318.78;5011396;28;20037;-27
2023/12/27 08:14:36;;;;;;;6.63;3.28;;;;;;;17.28;39.56;100326.53;5011278;28;20056;-27
2023/12/27 08:17:01;;;;;;;5.40;3.00;;;;;;;17.64;39.19;100320.09;5011138;28;20030;-26
2023/12/27 08:19:27;;;;;;;6.88;3.30;;;;;;;18.35;38.37;100336.94;5011048;28;20021;-26
2023/12/27 08:21:52;;;;;;;6.35;3.30;;;;;;;18.28;38.07;100336.25;5011759;28;20032;-26
2023/12/27 08:24:18;;;;;;;7.00;3.10;;;;;;;18.24;38.11;100343.16;5015040;28;20048;-27
2023/12/27 08:26:43;;;;;;;7.10;3.35;;;;;;;17.82;39.27;100348.75;5015008;28;20056;-27
2023/12/27 08:29:08;;;;;;;5.93;3.47;;;;;;;17.58;39.40;100338.00;5014510;28;20109;-27
2023/12/27 08:31:34;;;;;;;5.88;2.80;;;;;;;17.24;39.82;100347.69;5014601;28;20368;-27
2023/12/27 08:34:02;;;;;;;6.45;3.03;;;;;;;17.69;39.29;100351.69;5014633;28;20026;-26
2023/12/27 08:36:29;;;;;;;5.77;3.23;;;;;;;18.11;38.79;100356.91;5013566;28;20030;-28
2023/12/27 08:38:55;;;;;;;6.30;2.88;;;;;;;17.74;39.26;100352.63;5014665;28;20100;-28
2023/12/27 08:41:22;;;;;;;7.35;2.80;;;;;;;17.96;39.17;100365.50;5014329;28;20429;-27
2023/12/27 08:43:47;;;;;;;5.05;2.80;;;;;;;17.97;39.23;100367.09;5014560;28;20141;-27
2023/12/27 08:46:14;;;;;;;6.43;2.85;;;;;;;17.91;39.47;100366.19;5014576;28;20409;-26
2023/12/27 08:48:40;;;;;;;7.00;3.10;;;;;;;18.10;39.42;100369.53;5014434;28;20030;-27
2023/12/27 08:51:06;;;;;;;6.30;2.67;;;;;;;17.86;39.73;100360.72;5013967;28;20052;-27
2023/12/27 08:53:31;;;;;;;6.82;2.83;;;;;;;17.64;40.18;100357.75;5014272;28;20026;-26
2023/12/27 08:55:57;;;;;;;4.70;3.00;;;;;;;18.30;39.47;100352.97;5013889;28;20048;-27
2023/12/27 08:58:23;;;;;;;5.05;3.00;;;;;;;18.06;39.44;100343.34;5013998;28;20112;-27
2023/12/27 09:00:48;;;;;;;7.38;3.40;;;;;;;18.21;39.51;100343.63;5014032;28;20026;-27
2023/12/27 09:03:13;;;;;;;6.07;3.08;;;;;;;17.98;39.68;100337.25;5014184;28;20029;-27
2023/12/27 09:05:39;;;;;;;6.32;3.30;;;;;;;17.96;39.98;100334.00;5014437;28;20080;-28
2023/12/27 09:08:04;;;;;;;7.13;3.47;;;;;;;18.55;39.08;100335.66;5014294;28;20033;-28
2023/12/27 09:10:30;;;;;;;5.90;3.25;;;;;;;18.61;38.84;100340.06;5014613;28;20029;-27
2023/12/27 09:12:55;;;;;;;5.35;2.78;;;;;;;17.86;40.04;100327.56;5014693;28;20022;-27
2023/12/27 09:15:20;;;;;;;5.68;3.05;;;;;;;18.04;39.86;100330.09;5014528;28;20033;-26
2023/12/27 09:17:46;;;;;;;6.75;3.10;;;;;;;18.20;39.83;100328.56;5014098;28;20026;-26
2023/12/27 09:20:11;;;;;;;7.32;3.20;;;;;;;18.21;39.83;100318.59;5014484;28;20022;-28
2023/12/27 09:22:37;;;;;;;4.40;2.88;;;;;;;18.57;39.29;100317.38;5014342;28;20091;-27
2023/12/27 09:25:03;;;;;;;6.97;3.10;;;;;;;17.75;40.54;100326.53;5014113;28;20026;-27
2023/12/27 09:27:30;;;;;;;7.00;3.35;;;;;;;18.10;40.59;100333.72;5014020;28;20477;-28
2023/12/27 09:29:55;;;;;;;6.57;3.35;;;;;;;17.74;40.94;100331.09;5014081;28;20497;-27
2023/12/27 09:32:21;;;;;;;5.63;3.25;;;;;;;18.00;40.61;100322.75;5014180;28;20033;-27
2023/12/27 09:34:46;;;;;;;4.75;3.00;;;;;;;18.20;39.94;100315.09;5013810;28;20113;-28
2023/12/27 09:37:11;;;;;;;5.15;2.80;;;;;;;18.45;40.00;100325.53;5013760;28;20450;-28
2023/12/27 09:39:37;;;;;;;6.57;3.13;;;;;;;18.54;39.75;100329.47;5014093;28;20438;-27
2023/12/27 09:42:03;;;;;;;4.30;2.83;;;;;;;18.39;39.92;100331.88;5013577;28;20096;-27
2023/12/27 09:44:29;;;;;;;6.30;3.10;;;;;;;18.63;39.67;100316.38;5013714;28;20025;-28
2023/12/27 09:46:57;;;;;;;8.70;3.33;;;;;;;18.26;40.47;100313.28;5013594;28;20463;-28
2023/12/27 09:49:23;;;;;;;5.10;2.78;;;;;;;18.56;39.68;100303.09;5013130;28;20050;-28
2023/12/27 09:51:49;;;;;;;6.47;3.05;;;;;;;18.09;40.38;100305.97;5013512;28;20402;-27
2023/12/27 09:54:16;;;;;;;6.38;2.47;;;;;;;17.31;41.60;100301.88;5013370;28;20030;-27
2023/12/27 09:56:43;;;;;;;6.63;2.75;;;;;;;17.65;41.63;100304.75;5012079;28;20068;-28
2023/12/27 09:59:15;;;;;;;4.82;2.80;;;;;;;17.82;41.14;100294.06;5013176;28;20096;-27
2023/12/27 10:01:43;;;;;;;7.00;3.00;;;;;;;18.21;40.64;100287.06;5013178;28;20457;-27
2023/12/27 10:04:36;;;;;;;6.07;2.90;;;;;;;18.48;40.17;100289.19;5013120;28;20604;-26
2023/12/27 10:07:03;;;;;;;6.72;3.30;;;;;;;18.19;40.40;100301.84;5013092;28;20037;-27
2023/12/27 10:09:28;;;;;;;6.93;2.90;;;;;;;18.00;41.04;100298.53;5013076;28;20451;-27
2023/12/27 10:11:55;;;;;;;4.45;2.60;;;;;;;18.44;39.98;100282.63;5013426;28;20041;-27
2023/12/27 10:14:22;;;;;;;8.07;2.90;;;;;;;18.31;39.90;100272.97;5012668;28;20088;-29
2023/12/27 10:16:48;;;;;;;4.47;2.85;;;;;;;18.61;39.47;100288.06;5012977;28;20076;-27
2023/12/27 10:19:42;;;;;;;3.70;2.50;;;;;;;18.64;39.82;100276.78;5012989;28;20061;-27
2023/12/27 10:22:09;;;;;;;6.93;2.90;;;;;;;18.97;39.01;100277.91;5012987;28;20041;-27
2023/12/27 10:24:34;;;;;;;5.45;2.60;;;;;;;18.98;38.87;100264.13;5013138;28;20032;-28
2023/12/27 10:27:04;;;;;;;6.40;2.67;;;;;;;18.52;40.10;100266.06;5012514;28;20018;-28
2023/12/27 10:29:32;;;;;;;6.45;3.40;;;;;;;18.63;39.56;100250.91;5012507;28;20048;-27
2023/12/27 10:31:58;;;;;;;4.43;3.03;;;;;;;18.99;38.87;100248.78;5012677;28;20030;-29
2023/12/27 10:34:24;;;;;;;7.32;2.90;;;;;;;18.61;39.55;100244.94;5012269;28;20026;-27
2023/12/27 10:36:50;;;;;;;4.15;2.63;;;;;;;18.64;39.26;100223.69;5012184;28;20039;-27
2023/12/27 10:39:19;;;;;;;4.90;2.85;;;;;;;18.62;39.37;100233.06;5012208;28;20060;-27
2023/12/27 10:41:45;;;;;;;7.57;3.03;;;;;;;18.70;38.49;100230.00;5015802;28;20037;-28
2023/12/27 10:44:11;;;;;;;4.05;2.40;;;;;;;18.55;38.42;100235.94;5031835;28;20042;-27
2023/12/27 10:46:39;;;;;;;5.93;2.50;;;;;;;18.44;38.16;100234.13;5031566;28;20029;-26
2023/12/27 10:49:05;;;;;;;6.13;2.58;;;;;;;18.48;38.22;100233.41;5031565;28;20032;-27
2023/12/27 10:51:37;;;;;;;5.15;2.75;;;;;;;18.43;38.04;100224.41;5031931;28;20029;-28
2023/12/27 10:54:04;;;;;;;5.32;2.90;;;;;;;18.64;37.95;100233.66;5031690;28;20049;-28
2023/12/27 10:56:36;;;;;;;5.88;2.65;;;;;;;18.55;37.92;100217.09;5031494;28;20028;-27
2023/12/27 10:59:04;;;;;;;5.63;2.97;;;;;;;18.97;37.35;100221.25;5031665;28;20034;-28
2023/12/27 11:01:32;;;;;;;5.28;2.65;;;;;;;18.85;37.51;100222.19;5031804;28;20025;-27
2023/12/27 11:03:58;;;;;;;7.00;2.60;;;;;;;19.26;36.79;100217.34;5031768;28;20033;-28
2023/12/27 11:06:26;;;;;;;6.22;2.58;;;;;;;19.16;36.65;100217.22;5031936;28;20048;-28
2023/12/27 11:08:54;;;;;;;5.93;2.83;;;;;;;18.80;37.22;100219.38;5031919;28;20564;-28
2023/12/27 11:11:22;;;;;;;4.80;2.50;;;;;;;19.03;36.72;100209.47;5031718;28;20108;-26
2023/12/27 11:13:49;;;;;;;4.50;2.70;;;;;;;19.02;37.12;100211.38;5031306;28;20070;-25
2023/12/27 11:16:16;;;;;;;4.70;2.20;;;;;;;19.02;36.85;100226.72;5031522;28;20507;-27
2023/12/27 11:18:44;;;;;;;4.03;2.50;;;;;;;18.53;37.36;100224.59;5031880;28;20029;-28
2023/12/27 11:21:09;;;;;;;4.82;2.60;;;;;;;18.76;37.11;100224.41;5031313;28;20418;-27
2023/12/27 11:23:35;;;;;;;4.40;2.40;;;;;;;18.72;37.11;100222.47;5031539;28;20039;-27